Riverton, Vermont
Current Conditions -  °F | °C
As of 3:51 PM on Friday 19 Dec 2014 (Local Time) from KMPV Reporting Station
Overcast Overcast  
Wind Chill: 12°   Ceiling: 1200
Heat Index: 21°   Visibility: 10mi
Dew Point: 17°   Wind: 7mph
Humidity: 85%   Direction: 350°N
Pressure: 30.07"   Gusts: NA
Location:  44.1563°N, 72.6732°W
Report Text: KMPV 192051Z AUTO 35006KT 10SM OVC012 M06/M08 A3007 RMK AO2 SLP204 T10611083 53017
Loading
Personal Weather Stations






























Interactive Weather Map New forecast layout! Learn more

10-Day Weather Forecast

Advertisements
Track Severe Weather on mobile